sensor_id;sensor_type;location;lat;lon;timestamp;pressure;altitude;pressure_sealevel;temperature;humidity
22605;BME280;11469;49.024;8.246;2023-11-19T00:02:13;100360.22;;;9.07;100.00
22605;BME280;11469;49.024;8.246;2023-11-19T00:04:39;100361.16;;;9.11;100.00
22605;BME280;11469;49.024;8.246;2023-11-19T00:07:05;100361.38;;;9.06;100.00
22605;BME280;11469;49.024;8.246;2023-11-19T00:09:32;100381.88;;;9.10;100.00
22605;BME280;11469;49.024;8.246;2023-11-19T00:11:58;100377.22;;;9.14;100.00
22605;BME280;11469;49.024;8.246;2023-11-19T00:14:25;100369.66;;;9.15;100.00
22605;BME280;11469;49.024;8.246;2023-11-19T00:16:51;100362.28;;;9.22;100.00
22605;BME280;11469;49.024;8.246;2023-11-19T00:19:16;100358.31;;;9.23;100.00
22605;BME280;11469;49.024;8.246;2023-11-19T00:21:42;100359.97;;;9.24;100.00
22605;BME280;11469;49.024;8.246;2023-11-19T00:24:07;100358.09;;;9.28;100.00
22605;BME280;11469;49.024;8.246;2023-11-19T00:26:33;100342.38;;;9.24;100.00
22605;BME280;11469;49.024;8.246;2023-11-19T00:28:59;100340.94;;;9.30;100.00
22605;BME280;11469;49.024;8.246;2023-11-19T00:31:24;100327.06;;;9.34;100.00
22605;BME280;11469;49.024;8.246;2023-11-19T00:33:53;100326.72;;;9.35;100.00
22605;BME280;11469;49.024;8.246;2023-11-19T00:36:19;100324.72;;;9.36;100.00
22605;BME280;11469;49.024;8.246;2023-11-19T00:38:44;100317.63;;;9.38;100.00
22605;BME280;11469;49.024;8.246;2023-11-19T00:41:10;100329.25;;;9.40;100.00
22605;BME280;11469;49.024;8.246;2023-11-19T00:43:35;100324.31;;;9.49;100.00
22605;BME280;11469;49.024;8.246;2023-11-19T00:46:01;100319.41;;;9.46;100.00
22605;BME280;11469;49.024;8.246;2023-11-19T00:48:29;100332.16;;;9.44;100.00
22605;BME280;11469;49.024;8.246;2023-11-19T00:50:54;100326.66;;;9.47;100.00
22605;BME280;11469;49.024;8.246;2023-11-19T00:53:20;100334.31;;;9.50;100.00
22605;BME280;11469;49.024;8.246;2023-11-19T00:55:45;100320.69;;;9.49;100.00
22605;BME280;11469;49.024;8.246;2023-11-19T00:58:11;100325.56;;;9.52;100.00
22605;BME280;11469;49.024;8.246;2023-11-19T01:00:36;100317.66;;;9.54;100.00
22605;BME280;11469;49.024;8.246;2023-11-19T01:03:01;100310.41;;;9.53;100.00
22605;BME280;11469;49.024;8.246;2023-11-19T01:05:27;100315.66;;;9.54;100.00
22605;BME280;11469;49.024;8.246;2023-11-19T01:07:54;100300.25;;;9.60;100.00
22605;BME280;11469;49.024;8.246;2023-11-19T01:10:19;100317.38;;;9.59;100.00
22605;BME280;11469;49.024;8.246;2023-11-19T01:12:45;100317.38;;;9.59;100.00
22605;BME280;11469;49.024;8.246;2023-11-19T01:15:11;100318.75;;;9.65;100.00
22605;BME280;11469;49.024;8.246;2023-11-19T01:17:39;100316.41;;;9.67;100.00
22605;BME280;11469;49.024;8.246;2023-11-19T01:20:05;100329.50;;;9.63;100.00
22605;BME280;11469;49.024;8.246;2023-11-19T01:22:37;100329.50;;;9.63;100.00
22605;BME280;11469;49.024;8.246;2023-11-19T01:25:02;100327.50;;;9.63;100.00
22605;BME280;11469;49.024;8.246;2023-11-19T01:27:30;100321.56;;;9.65;100.00
22605;BME280;11469;49.024;8.246;2023-11-19T01:29:55;100324.34;;;9.65;100.00
22605;BME280;11469;49.024;8.246;2023-11-19T01:32:20;100329.34;;;9.72;100.00
22605;BME280;11469;49.024;8.246;2023-11-19T01:34:46;100325.72;;;9.71;100.00
22605;BME280;11469;49.024;8.246;2023-11-19T01:37:11;100326.09;;;9.70;100.00
22605;BME280;11469;49.024;8.246;2023-11-19T01:39:38;100326.09;;;9.70;100.00
22605;BME280;11469;49.024;8.246;2023-11-19T01:42:03;100331.69;;;9.70;100.00
22605;BME280;11469;49.024;8.246;2023-11-19T01:44:29;100328.28;;;9.76;100.00
22605;BME280;11469;49.024;8.246;2023-11-19T01:46:54;100326.63;;;9.75;100.00
22605;BME280;11469;49.024;8.246;2023-11-19T01:49:19;100328.72;;;9.78;100.00
22605;BME280;11469;49.024;8.246;2023-11-19T01:51:47;100322.22;;;9.74;100.00
22605;BME280;11469;49.024;8.246;2023-11-19T01:54:12;100314.63;;;9.75;100.00
22605;BME280;11469;49.024;8.246;2023-11-19T01:56:39;100318.25;;;9.75;100.00
22605;BME280;11469;49.024;8.246;2023-11-19T01:59:09;100313.47;;;9.76;100.00
22605;BME280;11469;49.024;8.246;2023-11-19T02:01:36;100305.63;;;9.81;100.00
22605;BME280;11469;49.024;8.246;2023-11-19T02:04:06;100303.19;;;9.80;100.00
22605;BME280;11469;49.024;8.246;2023-11-19T02:06:33;100304.00;;;9.80;100.00
22605;BME280;11469;49.024;8.246;2023-11-19T02:09:00;100306.34;;;9.78;100.00
22605;BME280;11469;49.024;8.246;2023-11-19T02:11:26;100307.25;;;9.82;100.00
22605;BME280;11469;49.024;8.246;2023-11-19T02:13:55;100302.47;;;9.83;100.00
22605;BME280;11469;49.024;8.246;2023-11-19T02:16:21;100303.28;;;9.83;100.00
22605;BME280;11469;49.024;8.246;2023-11-19T02:18:47;100313.31;;;9.84;100.00
22605;BME280;11469;49.024;8.246;2023-11-19T02:21:13;100309.88;;;9.91;100.00
22605;BME280;11469;49.024;8.246;2023-11-19T02:23:40;100310.59;;;9.88;100.00
22605;BME280;11469;49.024;8.246;2023-11-19T02:26:21;100320.53;;;9.85;100.00
22605;BME280;11469;49.024;8.246;2023-11-19T02:28:49;100291.72;;;9.85;100.00
22605;BME280;11469;49.024;8.246;2023-11-19T02:31:15;100289.03;;;9.88;100.00
22605;BME280;11469;49.024;8.246;2023-11-19T02:33:40;100299.03;;;9.89;100.00
22605;BME280;11469;49.024;8.246;2023-11-19T02:36:07;100309.13;;;9.94;100.00
22605;BME280;11469;49.024;8.246;2023-11-19T02:38:35;100292.28;;;9.90;100.00
22605;BME280;11469;49.024;8.246;2023-11-19T02:41:06;100286.69;;;9.90;100.00
22605;BME280;11469;49.024;8.246;2023-11-19T02:43:32;100293.50;;;9.93;100.00
22605;BME280;11469;49.024;8.246;2023-11-19T02:46:01;100291.34;;;10.02;100.00
22605;BME280;11469;49.024;8.246;2023-11-19T02:48:26;100289.28;;;9.99;100.00
22605;BME280;11469;49.024;8.246;2023-11-19T02:50:51;100280.50;;;10.01;100.00
22605;BME280;11469;49.024;8.246;2023-11-19T02:53:17;100252.88;;;9.99;100.00
22605;BME280;11469;49.024;8.246;2023-11-19T02:55:43;100260.09;;;10.00;100.00
22605;BME280;11469;49.024;8.246;2023-11-19T02:58:16;100256.56;;;10.03;100.00
22605;BME280;11469;49.024;8.246;2023-11-19T03:00:50;100272.66;;;10.06;100.00
22605;BME280;11469;49.024;8.246;2023-11-19T03:03:27;100264.97;;;10.03;100.00
22605;BME280;11469;49.024;8.246;2023-11-19T03:06:07;100266.59;;;10.04;100.00
22605;BME280;11469;49.024;8.246;2023-11-19T03:08:35;100267.88;;;10.07;100.00
22605;BME280;11469;49.024;8.246;2023-11-19T03:11:01;100273.56;;;10.10;100.00
22605;BME280;11469;49.024;8.246;2023-11-19T03:13:26;100268.31;;;10.09;100.00
22605;BME280;11469;49.024;8.246;2023-11-19T03:15:52;100257.56;;;10.11;100.00
22605;BME280;11469;49.024;8.246;2023-11-19T03:18:19;100258.03;;;10.13;100.00
22605;BME280;11469;49.024;8.246;2023-11-19T03:20:46;100248.91;;;10.16;100.00
22605;BME280;11469;49.024;8.246;2023-11-19T03:23:11;100248.53;;;10.17;100.00
22605;BME280;11469;49.024;8.246;2023-11-19T03:25:37;100252.63;;;10.20;100.00
22605;BME280;11469;49.024;8.246;2023-11-19T03:28:03;100255.31;;;10.16;100.00
22605;BME280;11469;49.024;8.246;2023-11-19T03:30:32;100243.75;;;10.18;100.00
22605;BME280;11469;49.024;8.246;2023-11-19T03:32:58;100245.03;;;10.20;100.00
22605;BME280;11469;49.024;8.246;2023-11-19T03:35:24;100247.56;;;10.25;100.00
22605;BME280;11469;49.024;8.246;2023-11-19T03:37:50;100255.63;;;10.27;100.00
22605;BME280;11469;49.024;8.246;2023-11-19T03:40:16;100246.84;;;10.28;100.00
22605;BME280;11469;49.024;8.246;2023-11-19T03:42:41;100247.66;;;10.29;100.00
22605;BME280;11469;49.024;8.246;2023-11-19T03:45:07;100258.06;;;10.28;100.00
22605;BME280;11469;49.024;8.246;2023-11-19T03:47:36;100265.38;;;10.33;100.00
22605;BME280;11469;49.024;8.246;2023-11-19T03:50:02;100270.59;;;10.35;100.00
22605;BME280;11469;49.024;8.246;2023-11-19T03:52:28;100259.41;;;10.35;100.00
22605;BME280;11469;49.024;8.246;2023-11-19T03:54:54;100260.66;;;10.37;100.00
22605;BME280;11469;49.024;8.246;2023-11-19T03:57:20;100255.78;;;10.34;100.00
22605;BME280;11469;49.024;8.246;2023-11-19T03:59:46;100260.22;;;10.35;100.00
22605;BME280;11469;49.024;8.246;2023-11-19T04:02:12;100263.47;;;10.37;100.00
22605;BME280;11469;49.024;8.246;2023-11-19T04:04:37;100255.44;;;10.36;100.00
22605;BME280;11469;49.024;8.246;2023-11-19T04:07:04;100274.31;;;10.39;100.00
22605;BME280;11469;49.024;8.246;2023-11-19T04:09:30;100260.34;;;10.42;100.00
22605;BME280;11469;49.024;8.246;2023-11-19T04:11:59;100257.56;;;10.42;100.00
22605;BME280;11469;49.024;8.246;2023-11-19T04:14:26;100264.78;;;10.43;100.00
22605;BME280;11469;49.024;8.246;2023-11-19T04:16:51;100252.03;;;10.46;100.00
22605;BME280;11469;49.024;8.246;2023-11-19T04:19:18;100259.28;;;10.47;100.00
22605;BME280;11469;49.024;8.246;2023-11-19T04:21:43;100259.63;;;10.45;100.00
22605;BME280;11469;49.024;8.246;2023-11-19T04:24:09;100247.63;;;10.45;100.00
22605;BME280;11469;49.024;8.246;2023-11-19T04:26:41;100248.88;;;10.47;100.00
22605;BME280;11469;49.024;8.246;2023-11-19T04:29:12;100255.81;;;10.53;100.00
22605;BME280;11469;49.024;8.246;2023-11-19T04:31:38;100252.56;;;10.51;100.00
22605;BME280;11469;49.024;8.246;2023-11-19T04:34:05;100253.66;;;10.47;100.00
22605;BME280;11469;49.024;8.246;2023-11-19T04:36:31;100255.75;;;10.50;100.00
22605;BME280;11469;49.024;8.246;2023-11-19T04:38:58;100259.53;;;10.57;100.00
22605;BME280;11469;49.024;8.246;2023-11-19T04:41:25;100257.53;;;10.58;100.00
22605;BME280;11469;49.024;8.246;2023-11-19T04:43:50;100248.59;;;10.52;100.00
22605;BME280;11469;49.024;8.246;2023-11-19T04:46:15;100249.66;;;10.63;100.00
22605;BME280;11469;49.024;8.246;2023-11-19T04:48:41;100237.19;;;10.61;100.00
22605;BME280;11469;49.024;8.246;2023-11-19T04:51:07;100245.22;;;10.62;100.00
22605;BME280;11469;49.024;8.246;2023-11-19T04:53:34;100234.91;;;10.67;100.00
22605;BME280;11469;49.024;8.246;2023-11-19T04:56:00;100238.91;;;10.66;100.00
22605;BME280;11469;49.024;8.246;2023-11-19T04:58:25;100238.91;;;10.66;100.00
22605;BME280;11469;49.024;8.246;2023-11-19T05:00:51;100243.41;;;10.70;100.00
22605;BME280;11469;49.024;8.246;2023-11-19T05:03:16;100232.72;;;10.76;100.00
22605;BME280;11469;49.024;8.246;2023-11-19T05:05:41;100234.34;;;10.77;100.00
22605;BME280;11469;49.024;8.246;2023-11-19T05:08:07;100230.00;;;10.79;100.00
22605;BME280;11469;49.024;8.246;2023-11-19T05:10:32;100228.38;;;10.78;100.00
22605;BME280;11469;49.024;8.246;2023-11-19T05:12:58;100234.78;;;10.79;100.00
22605;BME280;11469;49.024;8.246;2023-11-19T05:15:23;100244.09;;;10.83;100.00
22605;BME280;11469;49.024;8.246;2023-11-19T05:17:49;100249.38;;;10.88;100.00
22605;BME280;11469;49.024;8.246;2023-11-19T05:20:14;100248.16;;;10.85;100.00
22605;BME280;11469;49.024;8.246;2023-11-19T05:22:41;100249.47;;;10.91;100.00
22605;BME280;11469;49.024;8.246;2023-11-19T05:25:07;100241.03;;;10.91;100.00
22605;BME280;11469;49.024;8.246;2023-11-19T05:27:36;100239.06;;;10.92;100.00
22605;BME280;11469;49.024;8.246;2023-11-19T05:30:03;100235.44;;;10.91;100.00
22605;BME280;11469;49.024;8.246;2023-11-19T05:32:28;100224.38;;;10.98;100.00
22605;BME280;11469;49.024;8.246;2023-11-19T05:34:54;100218.84;;;11.02;100.00
22605;BME280;11469;49.024;8.246;2023-11-19T05:37:19;100222.47;;;11.03;100.00
22605;BME280;11469;49.024;8.246;2023-11-19T05:39:45;100232.13;;;11.05;100.00
22605;BME280;11469;49.024;8.246;2023-11-19T05:42:10;100223.72;;;11.05;100.00
22605;BME280;11469;49.024;8.246;2023-11-19T05:44:36;100219.00;;;11.09;100.00
22605;BME280;11469;49.024;8.246;2023-11-19T05:47:03;100219.34;;;11.08;100.00
22605;BME280;11469;49.024;8.246;2023-11-19T05:49:28;100216.94;;;11.06;100.00
22605;BME280;11469;49.024;8.246;2023-11-19T05:51:54;100220.09;;;11.05;100.00
22605;BME280;11469;49.024;8.246;2023-11-19T05:54:21;100230.59;;;11.08;100.00
22605;BME280;11469;49.024;8.246;2023-11-19T05:56:50;100215.44;;;11.12;100.00
22605;BME280;11469;49.024;8.246;2023-11-19T05:59:15;100225.03;;;11.11;100.00
22605;BME280;11469;49.024;8.246;2023-11-19T06:01:43;100223.13;;;11.15;100.00
22605;BME280;11469;49.024;8.246;2023-11-19T06:04:08;100231.09;;;11.13;100.00
22605;BME280;11469;49.024;8.246;2023-11-19T06:06:34;100221.22;;;11.19;100.00
22605;BME280;11469;49.024;8.246;2023-11-19T06:08:59;100211.09;;;11.15;100.00
22605;BME280;11469;49.024;8.246;2023-11-19T06:11:25;100204.38;;;11.19;100.00
22605;BME280;11469;49.024;8.246;2023-11-19T06:13:52;100208.88;;;11.24;100.00
22605;BME280;11469;49.024;8.246;2023-11-19T06:16:18;100209.31;;;11.26;100.00
22605;BME280;11469;49.024;8.246;2023-11-19T06:18:43;100208.56;;;11.29;100.00
22605;BME280;11469;49.024;8.246;2023-11-19T06:21:10;100214.56;;;11.27;100.00
22605;BME280;11469;49.024;8.246;2023-11-19T06:23:35;100232.19;;;11.28;100.00
22605;BME280;11469;49.024;8.246;2023-11-19T06:26:01;100243.88;;;11.30;100.00
22605;BME280;11469;49.024;8.246;2023-11-19T06:28:26;100247.03;;;11.28;100.00
22605;BME280;11469;49.024;8.246;2023-11-19T06:30:52;100246.31;;;11.32;100.00
22605;BME280;11469;49.024;8.246;2023-11-19T06:33:17;100233.47;;;11.30;100.00
22605;BME280;11469;49.024;8.246;2023-11-19T06:35:42;100233.91;;;11.33;100.00
22605;BME280;11469;49.024;8.246;2023-11-19T06:38:08;100229.03;;;11.29;100.00
22605;BME280;11469;49.024;8.246;2023-11-19T06:40:34;100230.28;;;11.32;100.00
22605;BME280;11469;49.024;8.246;2023-11-19T06:43:03;100223.91;;;11.35;100.00
22605;BME280;11469;49.024;8.246;2023-11-19T06:45:33;100213.44;;;11.32;100.00
22605;BME280;11469;49.024;8.246;2023-11-19T06:48:01;100222.78;;;11.40;100.00
22605;BME280;11469;49.024;8.246;2023-11-19T06:50:28;100225.88;;;11.35;100.00
22605;BME280;11469;49.024;8.246;2023-11-19T06:52:53;100224.31;;;11.34;100.00
22605;BME280;11469;49.024;8.246;2023-11-19T06:55:19;100225.53;;;11.36;100.00
22605;BME280;11469;49.024;8.246;2023-11-19T06:57:44;100225.16;;;11.38;100.00
22605;BME280;11469;49.024;8.246;2023-11-19T07:00:10;100238.75;;;11.36;100.00
22605;BME280;11469;49.024;8.246;2023-11-19T07:02:36;100238.75;;;11.36;100.00
22605;BME280;11469;49.024;8.246;2023-11-19T07:05:02;100237.56;;;11.37;100.00
22605;BME280;11469;49.024;8.246;2023-11-19T07:07:31;100243.25;;;11.40;100.00
22605;BME280;11469;49.024;8.246;2023-11-19T07:09:56;100242.94;;;11.45;100.00
22605;BME280;11469;49.024;8.246;2023-11-19T07:12:22;100230.16;;;11.48;100.00
22605;BME280;11469;49.024;8.246;2023-11-19T07:14:47;100245.81;;;11.49;100.00
22605;BME280;11469;49.024;8.246;2023-11-19T07:17:13;100235.41;;;11.49;100.00
22605;BME280;11469;49.024;8.246;2023-11-19T07:19:38;100243.00;;;11.49;100.00
22605;BME280;11469;49.024;8.246;2023-11-19T07:22:04;100238.66;;;11.51;100.00
22605;BME280;11469;49.024;8.246;2023-11-19T07:24:31;100242.63;;;11.50;100.00
22605;BME280;11469;49.024;8.246;2023-11-19T07:26:56;100251.94;;;11.54;100.00
22605;BME280;11469;49.024;8.246;2023-11-19T07:29:22;100249.50;;;11.53;100.00
22605;BME280;11469;49.024;8.246;2023-11-19T07:31:50;100258.38;;;11.55;100.00
22605;BME280;11469;49.024;8.246;2023-11-19T07:34:16;100266.84;;;11.58;100.00
22605;BME280;11469;49.024;8.246;2023-11-19T07:36:41;100264.94;;;11.62;100.00
22605;BME280;11469;49.024;8.246;2023-11-19T07:39:07;100260.13;;;11.63;100.00
22605;BME280;11469;49.024;8.246;2023-11-19T07:41:33;100269.00;;;11.65;100.00
22605;BME280;11469;49.024;8.246;2023-11-19T07:44:00;100272.25;;;11.67;100.00
22605;BME280;11469;49.024;8.246;2023-11-19T07:46:25;100278.00;;;11.74;100.00
22605;BME280;11469;49.024;8.246;2023-11-19T07:48:52;100277.63;;;11.76;100.00
22605;BME280;11469;49.024;8.246;2023-11-19T07:51:17;100286.19;;;11.83;100.00
22605;BME280;11469;49.024;8.246;2023-11-19T07:53:43;100280.56;;;11.83;100.00
22605;BME280;11469;49.024;8.246;2023-11-19T07:56:08;100283.00;;;11.84;100.00
22605;BME280;11469;49.024;8.246;2023-11-19T07:58:34;100286.75;;;11.92;100.00
22605;BME280;11469;49.024;8.246;2023-11-19T08:01:00;100294.38;;;11.91;100.00
22605;BME280;11469;49.024;8.246;2023-11-19T08:03:27;100281.19;;;11.95;100.00
22605;BME280;11469;49.024;8.246;2023-11-19T08:05:55;100287.63;;;11.96;100.00
22605;BME280;11469;49.024;8.246;2023-11-19T08:08:21;100291.19;;;11.93;100.00
22605;BME280;11469;49.024;8.246;2023-11-19T08:10:46;100292.06;;;11.97;100.00
22605;BME280;11469;49.024;8.246;2023-11-19T08:13:13;100298.56;;;12.01;100.00
22605;BME280;11469;49.024;8.246;2023-11-19T08:15:38;100297.75;;;12.01;100.00
22605;BME280;11469;49.024;8.246;2023-11-19T08:18:04;100308.16;;;12.00;100.00
22605;BME280;11469;49.024;8.246;2023-11-19T08:20:30;100298.13;;;11.99;100.00
22605;BME280;11469;49.024;8.246;2023-11-19T08:22:55;100291.38;;;12.04;100.00
22605;BME280;11469;49.024;8.246;2023-11-19T08:25:20;100307.50;;;12.07;100.00
22605;BME280;11469;49.024;8.246;2023-11-19T08:27:46;100313.69;;;12.16;100.00
22605;BME280;11469;49.024;8.246;2023-11-19T08:30:12;100309.63;;;12.13;100.00
22605;BME280;11469;49.024;8.246;2023-11-19T08:32:37;100311.53;;;12.09;100.00
22605;BME280;11469;49.024;8.246;2023-11-19T08:35:03;100299.69;;;12.19;100.00
22605;BME280;11469;49.024;8.246;2023-11-19T08:37:29;100290.94;;;12.24;100.00
22605;BME280;11469;49.024;8.246;2023-11-19T08:39:54;100293.75;;;12.24;100.00
22605;BME280;11469;49.024;8.246;2023-11-19T08:42:19;100296.19;;;12.26;100.00
22605;BME280;11469;49.024;8.246;2023-11-19T08:44:49;100296.22;;;12.29;100.00
22605;BME280;11469;49.024;8.246;2023-11-19T08:47:19;100307.06;;;12.27;100.00
22605;BME280;11469;49.024;8.246;2023-11-19T08:49:46;100303.47;;;12.30;100.00
22605;BME280;11469;49.024;8.246;2023-11-19T08:52:11;100296.28;;;12.33;100.00
22605;BME280;11469;49.024;8.246;2023-11-19T08:54:37;100295.09;;;12.34;100.00
22605;BME280;11469;49.024;8.246;2023-11-19T08:57:03;100307.22;;;12.38;100.00
22605;BME280;11469;49.024;8.246;2023-11-19T08:59:31;100314.84;;;12.38;100.00
22605;BME280;11469;49.024;8.246;2023-11-19T09:01:57;100316.91;;;12.41;100.00
22605;BME280;11469;49.024;8.246;2023-11-19T09:04:22;100320.53;;;12.41;100.00
22605;BME280;11469;49.024;8.246;2023-11-19T09:06:48;100307.72;;;12.44;100.00
22605;BME280;11469;49.024;8.246;2023-11-19T09:09:14;100318.63;;;12.49;100.00
22605;BME280;11469;49.024;8.246;2023-11-19T09:11:39;100313.41;;;12.47;100.00
22605;BME280;11469;49.024;8.246;2023-11-19T09:14:05;100319.38;;;12.46;100.00
22605;BME280;11469;49.024;8.246;2023-11-19T09:16:30;100326.69;;;12.50;100.00
22605;BME280;11469;49.024;8.246;2023-11-19T09:18:56;100325.81;;;12.46;100.00
22605;BME280;11469;49.024;8.246;2023-11-19T09:21:23;100326.81;;;12.57;100.00
22605;BME280;11469;49.024;8.246;2023-11-19T09:23:48;100331.63;;;12.57;100.00
22605;BME280;11469;49.024;8.246;2023-11-19T09:26:14;100315.56;;;12.57;100.00
22605;BME280;11469;49.024;8.246;2023-11-19T09:28:39;100322.00;;;12.58;100.00
22605;BME280;11469;49.024;8.246;2023-11-19T09:31:15;100332.88;;;12.59;100.00
22605;BME280;11469;49.024;8.246;2023-11-19T09:33:41;100328.13;;;12.63;100.00
22605;BME280;11469;49.024;8.246;2023-11-19T09:36:07;100328.19;;;12.67;100.00
22605;BME280;11469;49.024;8.246;2023-11-19T09:38:32;100330.25;;;12.70;100.00
22605;BME280;11469;49.024;8.246;2023-11-19T09:41:01;100323.06;;;12.76;100.00
22605;BME280;11469;49.024;8.246;2023-11-19T09:43:27;100336.34;;;12.76;100.00
22605;BME280;11469;49.024;8.246;2023-11-19T09:45:54;100333.91;;;12.74;100.00
22605;BME280;11469;49.024;8.246;2023-11-19T09:48:21;100330.72;;;12.76;100.00
22605;BME280;11469;49.024;8.246;2023-11-19T09:50:47;100339.19;;;12.79;100.00
22605;BME280;11469;49.024;8.246;2023-11-19T09:53:16;100328.06;;;12.86;100.00
22605;BME280;11469;49.024;8.246;2023-11-19T09:55:41;100338.13;;;12.87;100.00
22605;BME280;11469;49.024;8.246;2023-11-19T09:58:07;100341.78;;;12.91;100.00
22605;BME280;11469;49.024;8.246;2023-11-19T10:00:33;100328.47;;;12.88;100.00
22605;BME280;11469;49.024;8.246;2023-11-19T10:02:59;100331.34;;;12.92;100.00
22605;BME280;11469;49.024;8.246;2023-11-19T10:05:25;100329.72;;;12.91;100.00
22605;BME280;11469;49.024;8.246;2023-11-19T10:07:51;100329.34;;;12.92;100.00
22605;BME280;11469;49.024;8.246;2023-11-19T10:10:17;100315.63;;;12.87;100.00
22605;BME280;11469;49.024;8.246;2023-11-19T10:12:47;100319.22;;;12.88;100.00
22605;BME280;11469;49.024;8.246;2023-11-19T10:15:24;100317.78;;;12.98;100.00
22605;BME280;11469;49.024;8.246;2023-11-19T10:17:52;100321.13;;;13.07;100.00
22605;BME280;11469;49.024;8.246;2023-11-19T10:20:17;100316.41;;;13.14;100.00
22605;BME280;11469;49.024;8.246;2023-11-19T10:22:43;100319.69;;;13.16;100.00
22605;BME280;11469;49.024;8.246;2023-11-19T10:25:22;100318.97;;;13.23;100.00
22605;BME280;11469;49.024;8.246;2023-11-19T10:27:49;100313.41;;;13.30;100.00
22605;BME280;11469;49.024;8.246;2023-11-19T10:30:21;100315.19;;;13.42;100.00
22605;BME280;11469;49.024;8.246;2023-11-19T10:35:28;100306.63;;;13.65;100.00
22605;BME280;11469;49.024;8.246;2023-11-19T10:37:53;100309.09;;;13.70;100.00
22605;BME280;11469;49.024;8.246;2023-11-19T10:40:18;100303.84;;;13.72;100.00
22605;BME280;11469;49.024;8.246;2023-11-19T10:42:44;100300.38;;;13.85;100.00
22605;BME280;11469;49.024;8.246;2023-11-19T10:45:22;100289.88;;;13.82;100.00
22605;BME280;11469;49.024;8.246;2023-11-19T10:47:51;100293.59;;;13.90;100.00
22605;BME280;11469;49.024;8.246;2023-11-19T10:50:16;100290.00;;;13.93;100.00
22605;BME280;11469;49.024;8.246;2023-11-19T10:52:43;100296.50;;;13.97;100.00
22605;BME280;11469;49.024;8.246;2023-11-19T10:55:11;100308.28;;;14.10;100.00
22605;BME280;11469;49.024;8.246;2023-11-19T10:57:39;100301.50;;;14.14;100.00
22605;BME280;11469;49.024;8.246;2023-11-19T11:00:12;100300.69;;;14.14;100.00
22605;BME280;11469;49.024;8.246;2023-11-19T11:02:41;100291.47;;;14.20;100.00
22605;BME280;11469;49.024;8.246;2023-11-19T11:05:09;100295.56;;;14.30;100.00
22605;BME280;11469;49.024;8.246;2023-11-19T11:07:37;100287.16;;;14.34;100.00
22605;BME280;11469;49.024;8.246;2023-11-19T11:10:05;100301.25;;;14.34;100.00
22605;BME280;11469;49.024;8.246;2023-11-19T11:12:36;100296.00;;;14.32;100.00
22605;BME280;11469;49.024;8.246;2023-11-19T11:15:04;100301.56;;;14.25;100.00
22605;BME280;11469;49.024;8.246;2023-11-19T11:17:31;100290.72;;;14.27;100.00
22605;BME280;11469;49.024;8.246;2023-11-19T11:19:58;100299.19;;;14.31;100.00
22605;BME280;11469;49.024;8.246;2023-11-19T11:22:25;100287.91;;;14.27;100.00
22605;BME280;11469;49.024;8.246;2023-11-19T11:33:32;100259.97;;;14.55;100.00
22605;BME280;11469;49.024;8.246;2023-11-19T11:36:21;100252.38;;;14.63;100.00
22605;BME280;11469;49.024;8.246;2023-11-19T11:38:49;100262.47;;;14.71;100.00
22605;BME280;11469;49.024;8.246;2023-11-19T11:41:24;100255.69;;;14.79;100.00
22605;BME280;11469;49.024;8.246;2023-11-19T11:43:54;100263.81;;;14.91;100.00
22605;BME280;11469;49.024;8.246;2023-11-19T11:49:03;100257.84;;;15.04;100.00
22605;BME280;11469;49.024;8.246;2023-11-19T11:57:13;100250.88;;;14.83;100.00
22605;BME280;11469;49.024;8.246;2023-11-19T12:02:12;100247.22;;;14.83;100.00
22605;BME280;11469;49.024;8.246;2023-11-19T12:04:41;100246.06;;;14.91;100.00
22605;BME280;11469;49.024;8.246;2023-11-19T12:07:15;100240.94;;;15.07;100.00
22605;BME280;11469;49.024;8.246;2023-11-19T12:09:42;100240.13;;;15.14;100.00
22605;BME280;11469;49.024;8.246;2023-11-19T12:15:12;100218.75;;;15.13;100.00
22605;BME280;11469;49.024;8.246;2023-11-19T12:17:46;100214.34;;;15.12;100.00
22605;BME280;11469;49.024;8.246;2023-11-19T12:20:14;100210.66;;;15.04;100.00
22605;BME280;11469;49.024;8.246;2023-11-19T12:22:42;100225.56;;;14.98;100.00
22605;BME280;11469;49.024;8.246;2023-11-19T12:25:09;100224.34;;;14.95;100.00
22605;BME280;11469;49.024;8.246;2023-11-19T12:27:39;100214.69;;;15.00;100.00
22605;BME280;11469;49.024;8.246;2023-11-19T12:30:04;100217.56;;;15.10;100.00
22605;BME280;11469;49.024;8.246;2023-11-19T12:32:43;100208.72;;;15.22;100.00
22605;BME280;11469;49.024;8.246;2023-11-19T12:35:10;100203.94;;;15.41;100.00
22605;BME280;11469;49.024;8.246;2023-11-19T12:37:48;100215.63;;;15.43;100.00
22605;BME280;11469;49.024;8.246;2023-11-19T12:42:45;100203.94;;;15.44;100.00
22605;BME280;11469;49.024;8.246;2023-11-19T12:45:11;100197.47;;;15.40;98.78
22605;BME280;11469;49.024;8.246;2023-11-19T12:47:38;100201.91;;;15.34;98.93
22605;BME280;11469;49.024;8.246;2023-11-19T12:50:04;100193.00;;;15.25;100.00
22605;BME280;11469;49.024;8.246;2023-11-19T12:52:30;100201.44;;;15.11;99.29
22605;BME280;11469;49.024;8.246;2023-11-19T12:54:55;100203.00;;;15.01;99.42
22605;BME280;11469;49.024;8.246;2023-11-19T12:57:38;100206.59;;;14.98;99.54
22605;BME280;11469;49.024;8.246;2023-11-19T13:00:05;100196.50;;;14.90;98.17
22605;BME280;11469;49.024;8.246;2023-11-19T13:02:51;100191.63;;;14.87;99.21
22605;BME280;11469;49.024;8.246;2023-11-19T13:05:29;100190.03;;;14.86;98.02
22605;BME280;11469;49.024;8.246;2023-11-19T13:08:08;100182.34;;;14.83;99.40
22605;BME280;11469;49.024;8.246;2023-11-19T13:13:15;100192.88;;;14.93;98.68